sensor_id;sensor_type;location;lat;lon;timestamp;P1;durP1;ratioP1;P2;durP2;ratioP2
10523;SDS011;5310;48.638;9.060;2024-01-30T00:01:50;1.10;;;1.10;;
10523;SDS011;5310;48.638;9.060;2024-01-30T00:04:16;1.30;;;1.30;;
10523;SDS011;5310;48.638;9.060;2024-01-30T00:06:43;1.20;;;1.20;;
10523;SDS011;5310;48.638;9.060;2024-01-30T00:09:08;1.20;;;1.20;;
10523;SDS011;5310;48.638;9.060;2024-01-30T00:11:35;1.10;;;1.10;;
10523;SDS011;5310;48.638;9.060;2024-01-30T00:14:01;1.20;;;1.20;;
10523;SDS011;5310;48.638;9.060;2024-01-30T00:16:28;1.20;;;1.20;;
10523;SDS011;5310;48.638;9.060;2024-01-30T00:18:54;1.20;;;1.20;;
10523;SDS011;5310;48.638;9.060;2024-01-30T00:21:20;1.20;;;1.20;;
10523;SDS011;5310;48.638;9.060;2024-01-30T00:23:46;1.20;;;1.20;;
10523;SDS011;5310;48.638;9.060;2024-01-30T00:26:12;1.20;;;1.20;;
10523;SDS011;5310;48.638;9.060;2024-01-30T00:28:39;1.30;;;1.30;;
10523;SDS011;5310;48.638;9.060;2024-01-30T00:31:05;1.20;;;1.20;;
10523;SDS011;5310;48.638;9.060;2024-01-30T00:33:31;1.20;;;1.20;;
10523;SDS011;5310;48.638;9.060;2024-01-30T00:35:57;1.20;;;1.20;;
10523;SDS011;5310;48.638;9.060;2024-01-30T00:38:23;1.20;;;1.20;;
10523;SDS011;5310;48.638;9.060;2024-01-30T00:40:49;1.20;;;1.20;;
10523;SDS011;5310;48.638;9.060;2024-01-30T00:43:15;1.30;;;1.30;;
10523;SDS011;5310;48.638;9.060;2024-01-30T00:45:43;1.23;;;1.23;;
10523;SDS011;5310;48.638;9.060;2024-01-30T00:48:09;1.30;;;1.30;;
10523;SDS011;5310;48.638;9.060;2024-01-30T00:50:35;1.27;;;1.27;;
10523;SDS011;5310;48.638;9.060;2024-01-30T00:53:01;1.20;;;1.20;;
10523;SDS011;5310;48.638;9.060;2024-01-30T00:55:27;1.20;;;1.20;;
10523;SDS011;5310;48.638;9.060;2024-01-30T00:57:52;1.30;;;1.30;;
10523;SDS011;5310;48.638;9.060;2024-01-30T01:00:18;1.20;;;1.20;;
10523;SDS011;5310;48.638;9.060;2024-01-30T01:02:45;1.20;;;1.20;;
10523;SDS011;5310;48.638;9.060;2024-01-30T01:05:11;1.20;;;1.20;;
10523;SDS011;5310;48.638;9.060;2024-01-30T01:07:37;1.20;;;1.20;;
10523;SDS011;5310;48.638;9.060;2024-01-30T01:10:05;1.20;;;1.20;;
10523;SDS011;5310;48.638;9.060;2024-01-30T01:12:31;1.20;;;1.20;;
10523;SDS011;5310;48.638;9.060;2024-01-30T01:14:57;1.20;;;1.20;;
10523;SDS011;5310;48.638;9.060;2024-01-30T01:17:23;1.20;;;1.20;;
10523;SDS011;5310;48.638;9.060;2024-01-30T01:19:49;1.20;;;1.20;;
10523;SDS011;5310;48.638;9.060;2024-01-30T01:22:15;1.20;;;1.20;;
10523;SDS011;5310;48.638;9.060;2024-01-30T01:24:42;1.20;;;1.20;;
10523;SDS011;5310;48.638;9.060;2024-01-30T01:27:08;1.20;;;1.20;;
10523;SDS011;5310;48.638;9.060;2024-01-30T01:29:34;1.20;;;1.20;;
10523;SDS011;5310;48.638;9.060;2024-01-30T01:32:00;1.20;;;1.20;;
10523;SDS011;5310;48.638;9.060;2024-01-30T01:34:25;1.20;;;1.20;;
10523;SDS011;5310;48.638;9.060;2024-01-30T01:36:51;1.20;;;1.20;;
10523;SDS011;5310;48.638;9.060;2024-01-30T01:39:20;1.20;;;1.20;;
10523;SDS011;5310;48.638;9.060;2024-01-30T01:41:46;1.20;;;1.20;;
10523;SDS011;5310;48.638;9.060;2024-01-30T01:44:12;1.20;;;1.20;;
10523;SDS011;5310;48.638;9.060;2024-01-30T01:46:38;1.20;;;1.20;;
10523;SDS011;5310;48.638;9.060;2024-01-30T01:49:05;1.20;;;1.20;;
10523;SDS011;5310;48.638;9.060;2024-01-30T01:51:31;1.20;;;1.20;;
10523;SDS011;5310;48.638;9.060;2024-01-30T01:53:57;1.20;;;1.20;;
10523;SDS011;5310;48.638;9.060;2024-01-30T01:56:25;1.30;;;1.30;;
10523;SDS011;5310;48.638;9.060;2024-01-30T01:58:54;1.20;;;1.20;;
10523;SDS011;5310;48.638;9.060;2024-01-30T02:01:20;1.20;;;1.20;;
10523;SDS011;5310;48.638;9.060;2024-01-30T02:03:47;1.20;;;1.20;;
10523;SDS011;5310;48.638;9.060;2024-01-30T02:06:13;1.20;;;1.20;;
10523;SDS011;5310;48.638;9.060;2024-01-30T02:08:39;1.20;;;1.20;;
10523;SDS011;5310;48.638;9.060;2024-01-30T02:11:05;1.20;;;1.20;;
10523;SDS011;5310;48.638;9.060;2024-01-30T02:13:31;1.30;;;1.30;;
10523;SDS011;5310;48.638;9.060;2024-01-30T02:15:57;1.20;;;1.20;;
10523;SDS011;5310;48.638;9.060;2024-01-30T02:18:23;1.20;;;1.20;;
10523;SDS011;5310;48.638;9.060;2024-01-30T02:20:50;1.20;;;1.20;;
10523;SDS011;5310;48.638;9.060;2024-01-30T02:23:17;1.20;;;1.20;;
10523;SDS011;5310;48.638;9.060;2024-01-30T02:25:45;1.20;;;1.20;;
10523;SDS011;5310;48.638;9.060;2024-01-30T02:28:11;1.20;;;1.20;;
10523;SDS011;5310;48.638;9.060;2024-01-30T02:30:37;1.20;;;1.20;;
10523;SDS011;5310;48.638;9.060;2024-01-30T02:33:03;1.10;;;1.10;;
10523;SDS011;5310;48.638;9.060;2024-01-30T02:35:29;1.20;;;1.20;;
10523;SDS011;5310;48.638;9.060;2024-01-30T02:37:55;1.17;;;1.17;;
10523;SDS011;5310;48.638;9.060;2024-01-30T02:40:21;1.20;;;1.20;;
10523;SDS011;5310;48.638;9.060;2024-01-30T02:42:47;1.20;;;1.20;;
10523;SDS011;5310;48.638;9.060;2024-01-30T02:45:13;1.20;;;1.20;;
10523;SDS011;5310;48.638;9.060;2024-01-30T02:47:40;1.20;;;1.20;;
10523;SDS011;5310;48.638;9.060;2024-01-30T02:50:06;1.20;;;1.20;;
10523;SDS011;5310;48.638;9.060;2024-01-30T02:52:32;1.20;;;1.20;;
10523;SDS011;5310;48.638;9.060;2024-01-30T02:55:00;1.20;;;1.20;;
10523;SDS011;5310;48.638;9.060;2024-01-30T02:57:26;1.10;;;1.10;;
10523;SDS011;5310;48.638;9.060;2024-01-30T02:59:52;1.10;;;1.10;;
10523;SDS011;5310;48.638;9.060;2024-01-30T03:02:17;1.20;;;1.20;;
10523;SDS011;5310;48.638;9.060;2024-01-30T03:04:43;1.40;;;1.40;;
10523;SDS011;5310;48.638;9.060;2024-01-30T03:07:10;1.10;;;1.10;;
10523;SDS011;5310;48.638;9.060;2024-01-30T03:09:36;1.20;;;1.20;;
10523;SDS011;5310;48.638;9.060;2024-01-30T03:12:03;1.20;;;1.20;;
10523;SDS011;5310;48.638;9.060;2024-01-30T03:14:30;1.20;;;1.20;;
10523;SDS011;5310;48.638;9.060;2024-01-30T03:16:57;1.20;;;1.20;;
10523;SDS011;5310;48.638;9.060;2024-01-30T03:19:23;1.20;;;1.20;;
10523;SDS011;5310;48.638;9.060;2024-01-30T03:21:49;1.20;;;1.20;;
10523;SDS011;5310;48.638;9.060;2024-01-30T03:24:15;1.20;;;1.20;;
10523;SDS011;5310;48.638;9.060;2024-01-30T03:26:41;1.20;;;1.20;;
10523;SDS011;5310;48.638;9.060;2024-01-30T03:29:07;1.20;;;1.20;;
10523;SDS011;5310;48.638;9.060;2024-01-30T03:31:33;1.20;;;1.20;;
10523;SDS011;5310;48.638;9.060;2024-01-30T03:33:58;1.20;;;1.20;;
10523;SDS011;5310;48.638;9.060;2024-01-30T03:36:24;1.10;;;1.10;;
10523;SDS011;5310;48.638;9.060;2024-01-30T03:38:50;1.20;;;1.20;;
10523;SDS011;5310;48.638;9.060;2024-01-30T03:41:16;1.20;;;1.20;;
10523;SDS011;5310;48.638;9.060;2024-01-30T03:43:42;1.10;;;1.10;;
10523;SDS011;5310;48.638;9.060;2024-01-30T03:46:08;1.20;;;1.20;;
10523;SDS011;5310;48.638;9.060;2024-01-30T03:48:34;1.20;;;1.20;;
10523;SDS011;5310;48.638;9.060;2024-01-30T03:51:00;1.20;;;1.20;;
10523;SDS011;5310;48.638;9.060;2024-01-30T03:53:26;1.20;;;1.20;;
10523;SDS011;5310;48.638;9.060;2024-01-30T03:55:52;1.20;;;1.20;;
10523;SDS011;5310;48.638;9.060;2024-01-30T03:58:18;1.20;;;1.20;;
10523;SDS011;5310;48.638;9.060;2024-01-30T04:00:44;1.20;;;1.20;;
10523;SDS011;5310;48.638;9.060;2024-01-30T04:03:09;1.20;;;1.20;;
10523;SDS011;5310;48.638;9.060;2024-01-30T04:05:35;1.20;;;1.20;;
10523;SDS011;5310;48.638;9.060;2024-01-30T04:08:01;1.20;;;1.20;;
10523;SDS011;5310;48.638;9.060;2024-01-30T04:10:27;1.20;;;1.20;;
10523;SDS011;5310;48.638;9.060;2024-01-30T04:12:53;1.20;;;1.20;;
10523;SDS011;5310;48.638;9.060;2024-01-30T04:15:19;1.20;;;1.20;;
10523;SDS011;5310;48.638;9.060;2024-01-30T04:17:45;1.20;;;1.20;;
10523;SDS011;5310;48.638;9.060;2024-01-30T04:20:14;1.30;;;1.30;;
10523;SDS011;5310;48.638;9.060;2024-01-30T04:22:46;1.27;;;1.27;;
10523;SDS011;5310;48.638;9.060;2024-01-30T04:25:13;1.20;;;1.20;;
10523;SDS011;5310;48.638;9.060;2024-01-30T04:27:39;1.30;;;1.30;;
10523;SDS011;5310;48.638;9.060;2024-01-30T04:30:05;1.10;;;1.10;;
10523;SDS011;5310;48.638;9.060;2024-01-30T04:32:31;1.30;;;1.30;;
10523;SDS011;5310;48.638;9.060;2024-01-30T04:34:57;1.20;;;1.20;;
10523;SDS011;5310;48.638;9.060;2024-01-30T04:37:24;1.20;;;1.20;;
10523;SDS011;5310;48.638;9.060;2024-01-30T04:39:50;1.23;;;1.23;;
10523;SDS011;5310;48.638;9.060;2024-01-30T04:42:16;1.20;;;1.20;;
10523;SDS011;5310;48.638;9.060;2024-01-30T04:44:42;1.20;;;1.20;;
10523;SDS011;5310;48.638;9.060;2024-01-30T04:47:08;1.23;;;1.23;;
10523;SDS011;5310;48.638;9.060;2024-01-30T04:49:36;1.20;;;1.20;;
10523;SDS011;5310;48.638;9.060;2024-01-30T04:52:02;1.23;;;1.23;;
10523;SDS011;5310;48.638;9.060;2024-01-30T04:54:29;1.20;;;1.20;;
10523;SDS011;5310;48.638;9.060;2024-01-30T04:56:54;1.20;;;1.20;;
10523;SDS011;5310;48.638;9.060;2024-01-30T04:59:20;1.20;;;1.20;;
10523;SDS011;5310;48.638;9.060;2024-01-30T05:01:46;1.23;;;1.23;;
10523;SDS011;5310;48.638;9.060;2024-01-30T05:04:12;1.20;;;1.20;;
10523;SDS011;5310;48.638;9.060;2024-01-30T05:06:38;1.20;;;1.20;;
10523;SDS011;5310;48.638;9.060;2024-01-30T05:09:04;1.30;;;1.30;;
10523;SDS011;5310;48.638;9.060;2024-01-30T05:11:30;1.30;;;1.30;;
10523;SDS011;5310;48.638;9.060;2024-01-30T05:13:56;1.20;;;1.20;;
10523;SDS011;5310;48.638;9.060;2024-01-30T05:16:22;1.20;;;1.20;;
10523;SDS011;5310;48.638;9.060;2024-01-30T05:18:48;1.30;;;1.30;;
10523;SDS011;5310;48.638;9.060;2024-01-30T05:21:14;1.30;;;1.30;;
10523;SDS011;5310;48.638;9.060;2024-01-30T05:23:40;1.20;;;1.20;;
10523;SDS011;5310;48.638;9.060;2024-01-30T05:26:06;1.20;;;1.20;;
10523;SDS011;5310;48.638;9.060;2024-01-30T05:28:32;1.20;;;1.20;;
10523;SDS011;5310;48.638;9.060;2024-01-30T05:30:59;1.20;;;1.20;;
10523;SDS011;5310;48.638;9.060;2024-01-30T05:33:25;1.30;;;1.30;;
10523;SDS011;5310;48.638;9.060;2024-01-30T05:35:51;1.20;;;1.20;;
10523;SDS011;5310;48.638;9.060;2024-01-30T05:38:19;1.20;;;1.20;;
10523;SDS011;5310;48.638;9.060;2024-01-30T05:40:45;1.20;;;1.20;;
10523;SDS011;5310;48.638;9.060;2024-01-30T05:43:11;1.23;;;1.23;;
10523;SDS011;5310;48.638;9.060;2024-01-30T05:45:37;1.20;;;1.20;;
10523;SDS011;5310;48.638;9.060;2024-01-30T05:48:03;1.20;;;1.20;;
10523;SDS011;5310;48.638;9.060;2024-01-30T05:50:29;1.30;;;1.30;;
10523;SDS011;5310;48.638;9.060;2024-01-30T05:52:55;1.20;;;1.20;;
10523;SDS011;5310;48.638;9.060;2024-01-30T05:55:21;1.20;;;1.20;;
10523;SDS011;5310;48.638;9.060;2024-01-30T05:57:47;1.27;;;1.27;;
10523;SDS011;5310;48.638;9.060;2024-01-30T06:00:13;1.20;;;1.20;;
10523;SDS011;5310;48.638;9.060;2024-01-30T06:02:39;1.20;;;1.20;;
10523;SDS011;5310;48.638;9.060;2024-01-30T06:05:05;1.20;;;1.20;;
10523;SDS011;5310;48.638;9.060;2024-01-30T06:07:31;1.30;;;1.30;;
10523;SDS011;5310;48.638;9.060;2024-01-30T06:09:57;1.20;;;1.20;;
10523;SDS011;5310;48.638;9.060;2024-01-30T06:12:25;1.30;;;1.30;;
10523;SDS011;5310;48.638;9.060;2024-01-30T06:14:51;1.20;;;1.20;;
10523;SDS011;5310;48.638;9.060;2024-01-30T06:17:19;1.20;;;1.20;;
10523;SDS011;5310;48.638;9.060;2024-01-30T06:19:45;1.30;;;1.30;;
10523;SDS011;5310;48.638;9.060;2024-01-30T06:22:11;1.20;;;1.20;;
10523;SDS011;5310;48.638;9.060;2024-01-30T06:24:37;1.20;;;1.20;;
10523;SDS011;5310;48.638;9.060;2024-01-30T06:27:03;1.20;;;1.20;;
10523;SDS011;5310;48.638;9.060;2024-01-30T06:29:29;1.20;;;1.20;;
10523;SDS011;5310;48.638;9.060;2024-01-30T06:31:55;1.20;;;1.20;;
10523;SDS011;5310;48.638;9.060;2024-01-30T06:34:21;1.20;;;1.20;;
10523;SDS011;5310;48.638;9.060;2024-01-30T06:36:47;1.30;;;1.30;;
10523;SDS011;5310;48.638;9.060;2024-01-30T06:39:13;1.20;;;1.20;;
10523;SDS011;5310;48.638;9.060;2024-01-30T06:41:39;1.20;;;1.20;;
10523;SDS011;5310;48.638;9.060;2024-01-30T06:44:05;1.30;;;1.30;;
10523;SDS011;5310;48.638;9.060;2024-01-30T06:46:33;1.20;;;1.20;;
10523;SDS011;5310;48.638;9.060;2024-01-30T06:48:59;1.20;;;1.20;;
10523;SDS011;5310;48.638;9.060;2024-01-30T06:51:25;1.20;;;1.20;;
10523;SDS011;5310;48.638;9.060;2024-01-30T06:53:51;1.30;;;1.30;;
10523;SDS011;5310;48.638;9.060;2024-01-30T06:56:17;1.20;;;1.20;;
10523;SDS011;5310;48.638;9.060;2024-01-30T06:58:46;1.20;;;1.20;;
10523;SDS011;5310;48.638;9.060;2024-01-30T07:01:12;1.20;;;1.20;;
10523;SDS011;5310;48.638;9.060;2024-01-30T07:03:38;1.23;;;1.23;;
10523;SDS011;5310;48.638;9.060;2024-01-30T07:06:04;1.20;;;1.20;;
10523;SDS011;5310;48.638;9.060;2024-01-30T07:08:30;1.20;;;1.20;;
10523;SDS011;5310;48.638;9.060;2024-01-30T07:10:56;1.20;;;1.20;;
10523;SDS011;5310;48.638;9.060;2024-01-30T07:13:22;1.20;;;1.20;;
10523;SDS011;5310;48.638;9.060;2024-01-30T07:15:48;1.27;;;1.27;;
10523;SDS011;5310;48.638;9.060;2024-01-30T07:18:14;1.20;;;1.20;;
10523;SDS011;5310;48.638;9.060;2024-01-30T07:20:39;1.20;;;1.20;;
10523;SDS011;5310;48.638;9.060;2024-01-30T07:23:16;1.20;;;1.20;;
10523;SDS011;5310;48.638;9.060;2024-01-30T07:25:46;1.20;;;1.20;;
10523;SDS011;5310;48.638;9.060;2024-01-30T07:28:15;1.23;;;1.23;;
10523;SDS011;5310;48.638;9.060;2024-01-30T07:30:42;1.30;;;1.30;;
10523;SDS011;5310;48.638;9.060;2024-01-30T07:33:08;1.20;;;1.20;;
10523;SDS011;5310;48.638;9.060;2024-01-30T07:35:34;1.20;;;1.20;;
10523;SDS011;5310;48.638;9.060;2024-01-30T07:38:00;1.20;;;1.20;;
10523;SDS011;5310;48.638;9.060;2024-01-30T07:40:26;1.20;;;1.20;;
10523;SDS011;5310;48.638;9.060;2024-01-30T07:42:53;1.20;;;1.20;;
10523;SDS011;5310;48.638;9.060;2024-01-30T07:45:19;1.20;;;1.20;;
10523;SDS011;5310;48.638;9.060;2024-01-30T07:47:48;1.20;;;1.20;;
10523;SDS011;5310;48.638;9.060;2024-01-30T07:50:13;1.20;;;1.20;;
10523;SDS011;5310;48.638;9.060;2024-01-30T07:52:39;1.20;;;1.20;;
10523;SDS011;5310;48.638;9.060;2024-01-30T07:55:05;1.20;;;1.20;;
10523;SDS011;5310;48.638;9.060;2024-01-30T07:57:32;1.20;;;1.20;;
10523;SDS011;5310;48.638;9.060;2024-01-30T07:59:59;1.20;;;1.20;;
10523;SDS011;5310;48.638;9.060;2024-01-30T08:02:25;1.30;;;1.30;;
10523;SDS011;5310;48.638;9.060;2024-01-30T08:04:51;1.20;;;1.20;;
10523;SDS011;5310;48.638;9.060;2024-01-30T08:07:17;1.20;;;1.20;;
10523;SDS011;5310;48.638;9.060;2024-01-30T08:09:43;1.20;;;1.20;;
10523;SDS011;5310;48.638;9.060;2024-01-30T08:12:09;1.10;;;1.10;;
10523;SDS011;5310;48.638;9.060;2024-01-30T08:14:35;1.20;;;1.20;;
10523;SDS011;5310;48.638;9.060;2024-01-30T08:17:01;1.20;;;1.20;;
10523;SDS011;5310;48.638;9.060;2024-01-30T08:19:27;1.20;;;1.20;;
10523;SDS011;5310;48.638;9.060;2024-01-30T08:21:53;1.20;;;1.20;;
10523;SDS011;5310;48.638;9.060;2024-01-30T08:24:19;1.10;;;1.10;;
10523;SDS011;5310;48.638;9.060;2024-01-30T08:26:45;1.13;;;1.13;;
10523;SDS011;5310;48.638;9.060;2024-01-30T08:29:11;1.20;;;1.20;;
10523;SDS011;5310;48.638;9.060;2024-01-30T08:31:37;1.20;;;1.20;;
10523;SDS011;5310;48.638;9.060;2024-01-30T08:34:03;1.20;;;1.20;;
10523;SDS011;5310;48.638;9.060;2024-01-30T08:36:28;1.20;;;1.20;;
10523;SDS011;5310;48.638;9.060;2024-01-30T08:38:54;1.10;;;1.10;;
10523;SDS011;5310;48.638;9.060;2024-01-30T08:41:20;1.20;;;1.20;;
10523;SDS011;5310;48.638;9.060;2024-01-30T08:43:46;1.20;;;1.20;;
10523;SDS011;5310;48.638;9.060;2024-01-30T08:46:12;1.20;;;1.20;;
10523;SDS011;5310;48.638;9.060;2024-01-30T08:48:38;1.20;;;1.20;;
10523;SDS011;5310;48.638;9.060;2024-01-30T08:51:04;1.17;;;1.17;;
10523;SDS011;5310;48.638;9.060;2024-01-30T08:53:33;1.20;;;1.20;;
10523;SDS011;5310;48.638;9.060;2024-01-30T08:55:59;1.10;;;1.10;;
10523;SDS011;5310;48.638;9.060;2024-01-30T08:58:25;1.10;;;1.10;;
10523;SDS011;5310;48.638;9.060;2024-01-30T09:00:51;1.20;;;1.20;;
10523;SDS011;5310;48.638;9.060;2024-01-30T09:03:17;1.10;;;1.10;;
10523;SDS011;5310;48.638;9.060;2024-01-30T09:05:44;1.20;;;1.20;;
10523;SDS011;5310;48.638;9.060;2024-01-30T09:08:10;1.20;;;1.20;;
10523;SDS011;5310;48.638;9.060;2024-01-30T09:10:36;1.10;;;1.10;;
10523;SDS011;5310;48.638;9.060;2024-01-30T09:13:02;1.10;;;1.10;;
10523;SDS011;5310;48.638;9.060;2024-01-30T09:15:28;1.10;;;1.10;;
10523;SDS011;5310;48.638;9.060;2024-01-30T09:17:54;1.10;;;1.10;;
10523;SDS011;5310;48.638;9.060;2024-01-30T09:20:20;1.10;;;1.10;;
10523;SDS011;5310;48.638;9.060;2024-01-30T09:22:47;1.20;;;1.20;;
10523;SDS011;5310;48.638;9.060;2024-01-30T09:25:14;1.20;;;1.20;;
10523;SDS011;5310;48.638;9.060;2024-01-30T09:27:40;1.10;;;1.10;;
10523;SDS011;5310;48.638;9.060;2024-01-30T09:30:06;1.10;;;1.10;;
10523;SDS011;5310;48.638;9.060;2024-01-30T09:32:32;1.10;;;1.10;;
10523;SDS011;5310;48.638;9.060;2024-01-30T09:34:58;1.10;;;1.10;;
10523;SDS011;5310;48.638;9.060;2024-01-30T09:37:23;1.10;;;1.10;;
10523;SDS011;5310;48.638;9.060;2024-01-30T09:39:49;1.10;;;1.10;;
10523;SDS011;5310;48.638;9.060;2024-01-30T09:44:51;1.00;;;1.00;;
10523;SDS011;5310;48.638;9.060;2024-01-30T09:47:17;1.00;;;1.00;;
10523;SDS011;5310;48.638;9.060;2024-01-30T09:49:43;1.00;;;1.00;;
10523;SDS011;5310;48.638;9.060;2024-01-30T09:52:09;1.00;;;1.00;;
10523;SDS011;5310;48.638;9.060;2024-01-30T09:54:36;1.00;;;1.00;;
10523;SDS011;5310;48.638;9.060;2024-01-30T09:57:03;1.00;;;1.00;;
10523;SDS011;5310;48.638;9.060;2024-01-30T09:59:30;0.90;;;0.90;;
10523;SDS011;5310;48.638;9.060;2024-01-30T10:01:57;1.00;;;1.00;;
10523;SDS011;5310;48.638;9.060;2024-01-30T10:04:22;1.00;;;1.00;;
10523;SDS011;5310;48.638;9.060;2024-01-30T10:06:48;1.00;;;1.00;;
10523;SDS011;5310;48.638;9.060;2024-01-30T10:09:15;0.97;;;0.97;;
10523;SDS011;5310;48.638;9.060;2024-01-30T10:11:41;1.00;;;1.00;;
10523;SDS011;5310;48.638;9.060;2024-01-30T10:14:07;1.00;;;1.00;;
10523;SDS011;5310;48.638;9.060;2024-01-30T10:16:36;1.00;;;1.00;;
10523;SDS011;5310;48.638;9.060;2024-01-30T10:19:01;1.00;;;1.00;;
10523;SDS011;5310;48.638;9.060;2024-01-30T10:21:27;0.90;;;0.90;;
10523;SDS011;5310;48.638;9.060;2024-01-30T10:23:53;1.00;;;1.00;;
10523;SDS011;5310;48.638;9.060;2024-01-30T10:26:19;1.00;;;1.00;;
10523;SDS011;5310;48.638;9.060;2024-01-30T10:28:46;1.00;;;1.00;;
10523;SDS011;5310;48.638;9.060;2024-01-30T10:31:17;1.00;;;1.00;;
10523;SDS011;5310;48.638;9.060;2024-01-30T10:33:43;1.00;;;1.00;;
10523;SDS011;5310;48.638;9.060;2024-01-30T10:36:10;1.00;;;1.00;;
10523;SDS011;5310;48.638;9.060;2024-01-30T10:38:38;1.00;;;1.00;;
10523;SDS011;5310;48.638;9.060;2024-01-30T10:41:07;1.00;;;1.00;;
10523;SDS011;5310;48.638;9.060;2024-01-30T10:43:40;0.93;;;0.93;;
10523;SDS011;5310;48.638;9.060;2024-01-30T10:46:09;0.90;;;0.90;;
10523;SDS011;5310;48.638;9.060;2024-01-30T10:48:37;1.00;;;1.00;;
10523;SDS011;5310;48.638;9.060;2024-01-30T10:51:08;0.90;;;0.90;;
10523;SDS011;5310;48.638;9.060;2024-01-30T10:53:34;0.90;;;0.90;;
10523;SDS011;5310;48.638;9.060;2024-01-30T10:56:00;1.00;;;1.00;;
10523;SDS011;5310;48.638;9.060;2024-01-30T10:58:26;1.00;;;1.00;;
10523;SDS011;5310;48.638;9.060;2024-01-30T11:00:53;1.00;;;1.00;;
10523;SDS011;5310;48.638;9.060;2024-01-30T11:03:19;0.80;;;0.80;;
10523;SDS011;5310;48.638;9.060;2024-01-30T11:05:49;0.90;;;0.90;;
10523;SDS011;5310;48.638;9.060;2024-01-30T11:08:22;1.00;;;1.00;;
10523;SDS011;5310;48.638;9.060;2024-01-30T11:10:49;1.00;;;1.00;;
10523;SDS011;5310;48.638;9.060;2024-01-30T11:13:15;0.80;;;0.80;;
10523;SDS011;5310;48.638;9.060;2024-01-30T11:15:41;0.90;;;0.90;;
10523;SDS011;5310;48.638;9.060;2024-01-30T11:18:07;0.90;;;0.90;;
10523;SDS011;5310;48.638;9.060;2024-01-30T11:20:33;0.90;;;0.90;;
10523;SDS011;5310;48.638;9.060;2024-01-30T11:23:01;0.80;;;0.80;;
10523;SDS011;5310;48.638;9.060;2024-01-30T11:25:31;0.90;;;0.90;;
10523;SDS011;5310;48.638;9.060;2024-01-30T11:27:57;0.90;;;0.90;;
10523;SDS011;5310;48.638;9.060;2024-01-30T11:30:27;0.90;;;0.90;;
10523;SDS011;5310;48.638;9.060;2024-01-30T11:35:33;0.97;;;0.97;;
10523;SDS011;5310;48.638;9.060;2024-01-30T11:38:06;0.80;;;0.80;;
10523;SDS011;5310;48.638;9.060;2024-01-30T11:40:33;0.80;;;0.80;;
10523;SDS011;5310;48.638;9.060;2024-01-30T11:43:00;0.80;;;0.80;;
10523;SDS011;5310;48.638;9.060;2024-01-30T11:45:26;0.80;;;0.80;;
10523;SDS011;5310;48.638;9.060;2024-01-30T11:47:53;0.90;;;0.90;;
10523;SDS011;5310;48.638;9.060;2024-01-30T11:50:19;0.80;;;0.80;;
10523;SDS011;5310;48.638;9.060;2024-01-30T11:52:45;0.80;;;0.80;;
10523;SDS011;5310;48.638;9.060;2024-01-30T11:55:11;0.80;;;0.80;;
10523;SDS011;5310;48.638;9.060;2024-01-30T11:57:38;0.90;;;0.90;;
10523;SDS011;5310;48.638;9.060;2024-01-30T12:00:04;0.80;;;0.80;;
10523;SDS011;5310;48.638;9.060;2024-01-30T12:02:35;0.70;;;0.70;;
10523;SDS011;5310;48.638;9.060;2024-01-30T12:05:07;0.87;;;0.87;;
10523;SDS011;5310;48.638;9.060;2024-01-30T12:07:33;0.80;;;0.80;;
10523;SDS011;5310;48.638;9.060;2024-01-30T12:09:58;0.80;;;0.80;;
10523;SDS011;5310;48.638;9.060;2024-01-30T12:12:25;0.90;;;0.90;;
10523;SDS011;5310;48.638;9.060;2024-01-30T12:14:51;0.80;;;0.80;;
10523;SDS011;5310;48.638;9.060;2024-01-30T12:17:33;0.70;;;0.70;;
10523;SDS011;5310;48.638;9.060;2024-01-30T12:20:05;0.70;;;0.70;;
10523;SDS011;5310;48.638;9.060;2024-01-30T12:22:38;0.70;;;0.70;;
10523;SDS011;5310;48.638;9.060;2024-01-30T12:25:07;0.70;;;0.70;;
10523;SDS011;5310;48.638;9.060;2024-01-30T12:27:34;0.70;;;0.70;;
10523;SDS011;5310;48.638;9.060;2024-01-30T12:29:59;0.70;;;0.70;;
10523;SDS011;5310;48.638;9.060;2024-01-30T12:32:25;0.70;;;0.70;;
10523;SDS011;5310;48.638;9.060;2024-01-30T12:34:55;0.70;;;0.70;;
10523;SDS011;5310;48.638;9.060;2024-01-30T12:37:21;0.70;;;0.70;;
10523;SDS011;5310;48.638;9.060;2024-01-30T12:39:49;0.90;;;0.90;;
10523;SDS011;5310;48.638;9.060;2024-01-30T12:42:15;0.93;;;0.93;;
10523;SDS011;5310;48.638;9.060;2024-01-30T12:44:41;0.80;;;0.80;;
10523;SDS011;5310;48.638;9.060;2024-01-30T12:47:08;0.70;;;0.70;;
10523;SDS011;5310;48.638;9.060;2024-01-30T12:49:34;0.70;;;0.70;;
10523;SDS011;5310;48.638;9.060;2024-01-30T12:52:00;0.70;;;0.70;;
10523;SDS011;5310;48.638;9.060;2024-01-30T12:54:26;0.80;;;0.80;;
10523;SDS011;5310;48.638;9.060;2024-01-30T12:56:51;0.80;;;0.80;;
10523;SDS011;5310;48.638;9.060;2024-01-30T12:59:17;0.80;;;0.80;;
10523;SDS011;5310;48.638;9.060;2024-01-30T13:01:44;0.70;;;0.70;;
10523;SDS011;5310;48.638;9.060;2024-01-30T13:04:10;0.90;;;0.90;;
10523;SDS011;5310;48.638;9.060;2024-01-30T13:06:36;0.80;;;0.80;;
10523;SDS011;5310;48.638;9.060;2024-01-30T13:09:02;0.80;;;0.80;;
10523;SDS011;5310;48.638;9.060;2024-01-30T13:11:28;0.80;;;0.80;;
10523;SDS011;5310;48.638;9.060;2024-01-30T13:13:53;0.80;;;0.80;;
10523;SDS011;5310;48.638;9.060;2024-01-30T13:16:19;0.90;;;0.90;;
10523;SDS011;5310;48.638;9.060;2024-01-30T13:18:45;0.80;;;0.80;;
10523;SDS011;5310;48.638;9.060;2024-01-30T13:21:11;0.80;;;0.80;;
10523;SDS011;5310;48.638;9.060;2024-01-30T13:23:37;0.70;;;0.70;;
10523;SDS011;5310;48.638;9.060;2024-01-30T13:26:03;0.80;;;0.80;;
10523;SDS011;5310;48.638;9.060;2024-01-30T13:28:29;0.70;;;0.70;;
10523;SDS011;5310;48.638;9.060;2024-01-30T13:30:54;0.80;;;0.80;;
10523;SDS011;5310;48.638;9.060;2024-01-30T13:33:20;0.70;;;0.70;;
10523;SDS011;5310;48.638;9.060;2024-01-30T13:35:47;0.80;;;0.80;;
10523;SDS011;5310;48.638;9.060;2024-01-30T13:38:12;0.80;;;0.80;;
10523;SDS011;5310;48.638;9.060;2024-01-30T13:40:40;0.73;;;0.73;;
10523;SDS011;5310;48.638;9.060;2024-01-30T13:43:06;0.70;;;0.70;;
10523;SDS011;5310;48.638;9.060;2024-01-30T13:45:32;0.80;;;0.80;;
10523;SDS011;5310;48.638;9.060;2024-01-30T13:47:58;0.70;;;0.70;;
10523;SDS011;5310;48.638;9.060;2024-01-30T13:50:24;0.90;;;0.90;;
10523;SDS011;5310;48.638;9.060;2024-01-30T13:52:50;0.80;;;0.80;;
10523;SDS011;5310;48.638;9.060;2024-01-30T13:55:16;0.80;;;0.80;;
10523;SDS011;5310;48.638;9.060;2024-01-30T13:57:42;0.80;;;0.80;;
10523;SDS011;5310;48.638;9.060;2024-01-30T14:00:08;0.80;;;0.80;;
10523;SDS011;5310;48.638;9.060;2024-01-30T14:02:34;0.70;;;0.70;;
10523;SDS011;5310;48.638;9.060;2024-01-30T14:05:00;0.90;;;0.90;;
10523;SDS011;5310;48.638;9.060;2024-01-30T14:07:26;0.80;;;0.80;;
10523;SDS011;5310;48.638;9.060;2024-01-30T14:09:52;0.80;;;0.80;;
10523;SDS011;5310;48.638;9.060;2024-01-30T14:12:18;0.70;;;0.70;;
10523;SDS011;5310;48.638;9.060;2024-01-30T14:14:44;0.80;;;0.80;;
10523;SDS011;5310;48.638;9.060;2024-01-30T14:17:10;0.70;;;0.70;;
10523;SDS011;5310;48.638;9.060;2024-01-30T14:19:36;0.90;;;0.90;;
10523;SDS011;5310;48.638;9.060;2024-01-30T14:22:02;0.80;;;0.80;;
10523;SDS011;5310;48.638;9.060;2024-01-30T14:24:28;0.80;;;0.80;;
10523;SDS011;5310;48.638;9.060;2024-01-30T14:26:54;0.80;;;0.80;;
10523;SDS011;5310;48.638;9.060;2024-01-30T14:29:20;0.80;;;0.80;;
10523;SDS011;5310;48.638;9.060;2024-01-30T14:31:46;0.80;;;0.80;;
10523;SDS011;5310;48.638;9.060;2024-01-30T14:34:12;0.90;;;0.90;;
10523;SDS011;5310;48.638;9.060;2024-01-30T14:36:38;0.80;;;0.80;;
10523;SDS011;5310;48.638;9.060;2024-01-30T14:39:04;0.80;;;0.80;;
10523;SDS011;5310;48.638;9.060;2024-01-30T14:41:32;0.80;;;0.80;;
10523;SDS011;5310;48.638;9.060;2024-01-30T14:43:58;0.83;;;0.83;;
10523;SDS011;5310;48.638;9.060;2024-01-30T14:46:24;0.80;;;0.80;;
10523;SDS011;5310;48.638;9.060;2024-01-30T14:48:51;0.83;;;0.83;;
10523;SDS011;5310;48.638;9.060;2024-01-30T14:51:17;0.70;;;0.70;;
10523;SDS011;5310;48.638;9.060;2024-01-30T14:53:43;0.70;;;0.70;;
10523;SDS011;5310;48.638;9.060;2024-01-30T14:56:09;0.70;;;0.70;;
10523;SDS011;5310;48.638;9.060;2024-01-30T14:58:35;0.80;;;0.80;;
10523;SDS011;5310;48.638;9.060;2024-01-30T15:01:02;0.83;;;0.83;;